createdAt,value
2019-02-14T00:00:26.768Z,53.73
2019-02-14T00:02:55.759Z,53.93
2019-02-14T00:05:22.915Z,51.27
2019-02-14T00:07:49.991Z,56.00
2019-02-14T00:10:17.643Z,55.57
2019-02-14T00:12:46.494Z,47.93
2019-02-14T00:15:13.560Z,48.37
2019-02-14T00:17:40.959Z,57.30
2019-02-14T00:20:08.562Z,46.93
2019-02-14T00:22:36.139Z,54.27
2019-02-14T00:25:04.430Z,51.07
2019-02-14T00:27:31.569Z,62.33
2019-02-14T00:29:58.635Z,52.23
2019-02-14T00:32:26.120Z,53.80
2019-02-14T00:34:53.228Z,62.50
2019-02-14T00:37:20.287Z,50.13
2019-02-14T00:39:47.806Z,52.33
2019-02-14T00:42:14.866Z,51.30
2019-02-14T00:44:41.928Z,49.30
2019-02-14T00:47:11.919Z,64.57
2019-02-14T00:49:38.966Z,53.67
2019-02-14T00:52:06.353Z,63.23
2019-02-14T00:54:33.747Z,57.43
2019-02-14T00:57:00.816Z,54.33
2019-02-14T00:59:27.880Z,61.57
2019-02-14T01:01:56.173Z,59.13
2019-02-14T01:04:23.359Z,60.60
2019-02-14T01:06:50.943Z,59.60
2019-02-14T01:09:19.766Z,57.20
2019-02-14T01:11:47.090Z,60.63
2019-02-14T01:14:15.132Z,66.57
2019-02-14T01:16:42.549Z,65.43
2019-02-14T01:19:10.588Z,65.90
2019-02-14T01:21:37.619Z,57.10
2019-02-14T01:24:04.727Z,58.97
2019-02-14T01:26:31.780Z,58.47
2019-02-14T01:28:58.862Z,62.53
2019-02-14T01:31:25.906Z,52.70
2019-02-14T01:33:52.970Z,69.17
2019-02-14T01:36:20.123Z,58.53
2019-02-14T01:38:47.181Z,60.27
2019-02-14T01:41:14.673Z,67.20
2019-02-14T01:43:41.734Z,56.67
2019-02-14T01:46:08.769Z,65.20
2019-02-14T01:48:37.637Z,60.23
2019-02-14T01:51:05.822Z,69.13
2019-02-14T01:53:32.959Z,71.57
2019-02-14T01:56:00.141Z,59.30
2019-02-14T01:58:28.301Z,63.07
2019-02-14T02:00:55.339Z,61.13
2019-02-14T02:03:22.593Z,67.20
2019-02-14T02:05:50.985Z,72.13
2019-02-14T02:08:19.412Z,61.87
2019-02-14T02:10:47.120Z,69.50
2019-02-14T02:13:14.184Z,60.30
2019-02-14T02:15:41.267Z,71.13
2019-02-14T02:18:08.452Z,74.43
2019-02-14T02:20:36.183Z,67.77
2019-02-14T02:23:03.339Z,72.40
2019-02-14T02:25:30.515Z,70.07
2019-02-14T02:27:57.938Z,70.17
2019-02-14T02:30:25.395Z,64.57
2019-02-14T02:32:53.161Z,72.43
2019-02-14T02:35:20.821Z,67.03
2019-02-14T02:37:47.978Z,64.43
2019-02-14T02:40:15.395Z,70.63
2019-02-14T02:42:42.454Z,77.63
2019-02-14T02:45:11.369Z,67.27
2019-02-14T02:47:38.462Z,65.60
2019-02-14T02:50:07.850Z,69.53
2019-02-14T02:52:36.925Z,66.07
2019-02-14T02:55:04.411Z,70.27
2019-02-14T02:57:32.235Z,69.00
2019-02-14T02:59:59.329Z,71.83
2019-02-14T03:02:26.633Z,71.53
2019-02-14T03:04:54.134Z,65.40
2019-02-14T03:07:21.545Z,71.80
2019-02-14T03:09:48.575Z,77.72
2019-02-14T03:12:17.693Z,73.70
2019-02-14T03:14:44.717Z,78.20
2019-02-14T03:17:12.162Z,75.70
2019-02-14T03:19:39.193Z,83.07
2019-02-14T03:22:06.269Z,71.40
2019-02-14T03:24:33.317Z,85.80
2019-02-14T03:27:00.373Z,76.27
2019-02-14T03:29:27.393Z,79.53
2019-02-14T03:31:54.511Z,79.93
2019-02-14T03:34:21.537Z,78.43
2019-02-14T03:36:50.425Z,83.90
2019-02-14T03:39:17.444Z,84.13
2019-02-14T03:41:45.564Z,80.40
2019-02-14T03:44:12.601Z,83.77
2019-02-14T03:46:39.842Z,86.30
2019-02-14T03:49:07.936Z,76.00
2019-02-14T03:51:35.024Z,81.67
2019-02-14T03:54:02.434Z,66.63
2019-02-14T03:56:29.533Z,81.03
2019-02-14T03:58:56.590Z,78.93
2019-02-14T04:01:23.658Z,79.20
2019-02-14T04:03:50.738Z,81.47
2019-02-14T04:06:17.825Z,72.83
2019-02-14T04:08:44.885Z,73.90
2019-02-14T04:11:12.057Z,91.67
2019-02-14T04:13:39.671Z,81.03
2019-02-14T04:16:06.750Z,81.37
2019-02-14T04:18:33.874Z,91.67
2019-02-14T04:21:01.264Z,78.07
2019-02-14T04:23:28.761Z,90.63
2019-02-14T04:25:56.214Z,74.60
2019-02-14T04:28:23.369Z,95.73
2019-02-14T04:30:50.432Z,86.80
2019-02-14T04:33:18.233Z,88.30
2019-02-14T04:35:46.201Z,84.13
2019-02-14T04:38:13.967Z,82.10
2019-02-14T04:40:42.404Z,87.67
2019-02-14T04:43:10.111Z,87.57
2019-02-14T04:45:37.769Z,86.63
2019-02-14T04:48:05.946Z,88.73
2019-02-14T04:50:33.603Z,85.93
2019-02-14T04:53:01.683Z,84.23
2019-02-14T04:55:30.978Z,95.17
2019-02-14T04:57:58.361Z,103.93
2019-02-14T05:00:25.991Z,87.57
2019-02-14T05:02:53.474Z,97.07
2019-02-14T05:05:21.109Z,89.10
2019-02-14T05:07:49.183Z,96.27
2019-02-14T05:10:16.842Z,93.67
2019-02-14T05:12:44.915Z,93.23
2019-02-14T05:15:12.678Z,91.03
2019-02-14T05:17:40.031Z,98.03
2019-02-14T05:20:07.987Z,105.97
2019-02-14T05:22:36.586Z,92.13
2019-02-14T05:25:04.340Z,97.33
2019-02-14T05:27:31.537Z,90.90
2019-02-14T05:29:58.621Z,97.47
2019-02-14T05:32:25.743Z,90.28
2019-02-14T05:34:52.923Z,107.80
2019-02-14T05:37:21.061Z,96.33
2019-02-14T05:39:48.171Z,104.13
2019-02-14T05:42:15.341Z,98.53
2019-02-14T05:44:42.796Z,91.07
2019-02-14T05:47:09.969Z,108.63
2019-02-14T05:49:37.301Z,102.67
2019-02-14T05:52:04.480Z,111.33
2019-02-14T05:54:32.622Z,112.52
2019-02-14T05:56:59.802Z,109.43
2019-02-14T05:59:27.247Z,95.80
2019-02-14T06:01:56.100Z,111.57
2019-02-14T06:04:25.182Z,86.80
2019-02-14T06:06:52.307Z,96.37
2019-02-14T06:09:19.389Z,95.27
2019-02-14T06:11:46.576Z,94.43
2019-02-14T06:14:13.997Z,97.07
2019-02-14T06:16:42.481Z,102.10
2019-02-14T06:19:10.855Z,97.20
2019-02-14T06:21:37.928Z,101.20
2019-02-14T06:24:05.131Z,109.13
2019-02-14T06:26:32.560Z,109.77
2019-02-14T06:28:59.912Z,105.90
2019-02-14T06:31:26.991Z,104.93
2019-02-14T06:33:54.879Z,103.30
2019-02-14T06:36:22.544Z,115.10
2019-02-14T06:38:50.504Z,102.90
2019-02-14T06:41:18.587Z,106.97
2019-02-14T06:43:47.788Z,103.00
2019-02-14T06:46:15.541Z,105.70
2019-02-14T06:48:44.074Z,106.52
2019-02-14T06:51:11.609Z,118.53
2019-02-14T06:53:39.345Z,106.92
2019-02-14T06:56:06.951Z,118.20
2019-02-14T06:58:34.035Z,109.43
2019-02-14T07:01:01.234Z,112.40
2019-02-14T07:03:28.474Z,113.50
2019-02-14T07:05:56.046Z,103.47
2019-02-14T07:08:23.433Z,104.13
2019-02-14T07:10:51.079Z,116.80
2019-02-14T07:13:18.142Z,112.40
2019-02-14T07:15:45.539Z,97.43
2019-02-14T07:18:12.727Z,112.07
2019-02-14T07:20:40.189Z,107.27
2019-02-14T07:23:07.262Z,102.07
2019-02-14T07:25:34.484Z,110.50
2019-02-14T07:28:01.852Z,120.10
2019-02-14T07:30:29.974Z,118.10
2019-02-14T07:32:58.193Z,101.80
2019-02-14T07:35:25.371Z,126.33
2019-02-14T07:37:52.432Z,109.07
2019-02-14T07:40:19.737Z,110.43
2019-02-14T07:42:47.202Z,110.87
2019-02-14T07:45:14.304Z,116.63
2019-02-14T07:47:41.390Z,102.37
2019-02-14T07:50:09.539Z,113.83
2019-02-14T07:52:36.722Z,108.07
2019-02-14T07:55:05.128Z,113.50
2019-02-14T07:57:33.444Z,116.93
2019-02-14T08:00:00.566Z,121.77
2019-02-14T08:02:27.599Z,113.00
2019-02-14T08:04:55.017Z,108.57
2019-02-14T08:07:22.377Z,113.00
2019-02-14T08:09:49.470Z,109.05
2019-02-14T08:12:17.632Z,117.35
2019-02-14T08:14:44.949Z,105.00
2019-02-14T08:17:12.182Z,100.17
2019-02-14T08:19:39.275Z,119.20
2019-02-14T08:22:06.691Z,114.28
2019-02-14T08:24:34.635Z,102.55
2019-02-14T08:27:03.015Z,121.07
2019-02-14T08:29:30.405Z,111.30
2019-02-14T08:31:57.510Z,110.70
2019-02-14T08:34:25.894Z,114.33
2019-02-14T08:36:54.230Z,125.03
2019-02-14T08:39:23.674Z,107.37
2019-02-14T08:41:55.333Z,109.77
2019-02-14T08:44:22.766Z,118.57
2019-02-14T08:46:50.556Z,118.37
2019-02-14T08:49:18.931Z,118.53
2019-02-14T08:51:50.679Z,118.60
2019-02-14T08:54:18.176Z,117.73
2019-02-14T08:56:46.624Z,104.37
2019-02-14T08:59:14.386Z,135.57
2019-02-14T09:01:42.045Z,110.10
2019-02-14T09:04:13.432Z,115.37
2019-02-14T09:06:41.877Z,112.43
2019-02-14T09:09:08.962Z,106.83
2019-02-14T09:11:36.903Z,120.22
2019-02-14T09:14:05.720Z,105.03
2019-02-14T09:16:33.139Z,108.50
2019-02-14T09:19:00.598Z,110.47
2019-02-14T09:21:28.473Z,115.13
2019-02-14T09:23:56.227Z,107.20
2019-02-14T09:26:24.194Z,98.37
2019-02-14T09:28:52.774Z,103.67
2019-02-14T09:31:20.647Z,114.07
2019-02-14T09:33:48.352Z,88.57
2019-02-14T09:36:19.713Z,100.80
2019-02-14T09:38:47.110Z,83.97
2019-02-14T09:41:14.217Z,92.10
2019-02-14T09:43:42.708Z,85.03
2019-02-14T09:46:10.511Z,81.40
2019-02-14T09:48:38.031Z,84.80
2019-02-14T09:51:06.156Z,90.47
2019-02-14T09:53:36.462Z,83.73
2019-02-14T09:56:03.978Z,106.70
2019-02-14T09:58:31.784Z,95.33
2019-02-14T10:00:59.550Z,95.20
2019-02-14T10:03:27.767Z,95.53
2019-02-14T10:05:54.824Z,88.33
2019-02-14T10:08:24.994Z,92.37
2019-02-14T10:10:52.208Z,96.57
2019-02-14T10:13:20.212Z,87.07
2019-02-14T10:15:49.207Z,88.10
2019-02-14T10:18:17.994Z,81.50
2019-02-14T10:20:45.964Z,91.13
2019-02-14T10:23:13.163Z,88.93
2019-02-14T10:25:41.335Z,102.10
2019-02-14T10:28:09.045Z,96.97
2019-02-14T10:30:36.235Z,94.40
2019-02-14T10:33:03.678Z,90.73
2019-02-14T10:35:30.890Z,82.93
2019-02-14T10:37:59.235Z,101.97
2019-02-14T10:40:26.830Z,71.40
2019-02-14T10:42:54.402Z,92.67
2019-02-14T10:45:21.603Z,90.90
2019-02-14T10:47:49.423Z,86.73
2019-02-14T10:50:17.080Z,97.97
2019-02-14T10:52:44.770Z,81.97
2019-02-14T10:55:13.015Z,88.97
2019-02-14T10:57:40.199Z,85.87
2019-02-14T11:00:16.392Z,87.13
2019-02-14T11:02:44.295Z,77.43
2019-02-14T11:05:13.827Z,73.00
2019-02-14T11:07:41.254Z,74.30
2019-02-14T11:10:09.838Z,77.30
2019-02-14T11:12:37.299Z,81.40
2019-02-14T11:15:09.046Z,81.47
2019-02-14T11:17:36.096Z,76.47
2019-02-14T11:20:03.656Z,68.83
2019-02-14T11:22:31.792Z,69.30
2019-02-14T11:24:59.707Z,72.37
2019-02-14T11:27:27.206Z,75.13
2019-02-14T11:29:55.947Z,66.53
2019-02-14T11:32:23.408Z,79.73
2019-02-14T11:34:52.912Z,71.17
2019-02-14T11:37:20.672Z,74.53
2019-02-14T11:39:48.575Z,61.50
2019-02-14T11:42:18.047Z,72.77
2019-02-14T11:44:45.581Z,64.50
2019-02-14T11:47:13.371Z,64.17
2019-02-14T11:49:41.235Z,65.13
2019-02-14T11:52:09.101Z,63.70
2019-02-14T11:54:36.168Z,67.27
2019-02-14T11:57:07.655Z,70.67
2019-02-14T11:59:34.718Z,60.73
2019-02-14T12:02:02.611Z,69.07
2019-02-14T12:04:29.684Z,58.27
2019-02-14T12:06:57.121Z,62.90
2019-02-14T12:09:24.182Z,55.83
2019-02-14T12:11:51.931Z,57.27
2019-02-14T12:14:19.389Z,54.13
2019-02-14T12:16:47.564Z,67.70
2019-02-14T12:19:14.960Z,63.50
2019-02-14T12:21:42.673Z,61.40
2019-02-14T12:24:10.337Z,51.40
2019-02-14T12:26:38.411Z,60.70
2019-02-14T12:29:05.809Z,48.17
2019-02-14T12:31:32.904Z,58.30
2019-02-14T12:34:00.000Z,69.40
2019-02-14T12:36:27.530Z,50.07
2019-02-14T12:38:55.322Z,57.90
2019-02-14T12:41:23.052Z,56.43
2019-02-14T12:43:51.145Z,59.43
2019-02-14T12:46:20.315Z,55.17
2019-02-14T12:48:47.371Z,48.83
2019-02-14T12:51:14.455Z,53.43
2019-02-14T12:53:41.514Z,50.30
2019-02-14T12:56:08.675Z,54.90
2019-02-14T12:58:36.839Z,44.10
2019-02-14T13:01:05.650Z,54.00
2019-02-14T13:03:33.831Z,51.70
2019-02-14T13:06:02.241Z,43.00
2019-02-14T13:08:29.411Z,48.63
2019-02-14T13:10:56.503Z,42.30
2019-02-14T13:13:24.946Z,42.63
2019-02-14T13:15:53.829Z,50.77
2019-02-14T13:18:21.940Z,50.03
2019-02-14T13:20:52.865Z,46.47
2019-02-14T13:23:20.214Z,47.17
2019-02-14T13:25:47.252Z,46.93
2019-02-14T13:28:16.747Z,47.80
2019-02-14T13:30:44.160Z,45.87
2019-02-14T13:33:11.620Z,50.30
2019-02-14T13:35:38.706Z,46.83
2019-02-14T13:38:05.770Z,46.30
2019-02-14T13:40:33.117Z,45.07
2019-02-14T13:43:01.058Z,46.33
2019-02-14T13:45:29.576Z,48.37
2019-02-14T13:47:56.631Z,47.83
2019-02-14T13:50:23.714Z,49.13
2019-02-14T13:52:51.128Z,45.87
2019-02-14T13:55:18.177Z,46.00
2019-02-14T13:57:47.460Z,46.50
2019-02-14T14:00:17.329Z,47.30
2019-02-14T14:02:44.378Z,46.17
2019-02-14T14:05:12.353Z,44.80
2019-02-14T14:07:41.860Z,51.50
2019-02-14T14:10:08.979Z,48.07
2019-02-14T14:12:37.594Z,46.07
2019-02-14T14:15:05.304Z,42.87
2019-02-14T14:17:32.856Z,51.10
2019-02-14T14:20:00.808Z,48.70
2019-02-14T14:22:28.275Z,50.27
2019-02-14T14:24:55.390Z,42.83
2019-02-14T14:27:22.510Z,44.87
2019-02-14T14:29:49.632Z,46.53
2019-02-14T14:32:16.714Z,41.70
2019-02-14T14:34:44.389Z,37.57
2019-02-14T14:37:12.153Z,41.13
2019-02-14T14:39:46.031Z,40.20
2019-02-14T14:42:12.223Z,39.60
2019-02-14T14:44:48.523Z,43.93
2019-02-14T14:47:18.137Z,43.00
2019-02-14T14:49:45.600Z,40.73
2019-02-14T14:52:13.385Z,40.90
2019-02-14T14:54:41.762Z,42.33
2019-02-14T14:57:09.636Z,43.00
2019-02-14T14:59:37.160Z,47.10
2019-02-14T15:02:04.623Z,51.73
2019-02-14T15:04:31.742Z,45.57
2019-02-14T15:06:58.866Z,49.93
2019-02-14T15:09:26.262Z,50.60
2019-02-14T15:11:53.338Z,48.80
2019-02-14T15:14:20.439Z,42.57
2019-02-14T15:16:47.586Z,47.30
2019-02-14T15:19:15.714Z,42.57
2019-02-14T15:21:42.803Z,47.13
2019-02-14T15:24:09.973Z,45.10
2019-02-14T15:26:38.250Z,47.27
2019-02-14T15:29:05.378Z,41.10
2019-02-14T15:31:32.551Z,43.03
2019-02-14T15:33:59.919Z,41.83
2019-02-14T15:36:29.068Z,42.37
2019-02-14T15:38:56.751Z,39.00
2019-02-14T15:41:23.836Z,46.37
2019-02-14T15:43:51.311Z,48.33
2019-02-14T15:46:20.228Z,49.80
2019-02-14T15:48:47.971Z,66.07
2019-02-14T15:51:17.824Z,47.90
2019-02-14T15:53:46.240Z,49.23
2019-02-14T15:56:13.555Z,49.90
2019-02-14T15:58:41.476Z,55.30
2019-02-14T16:01:10.559Z,47.77
2019-02-14T16:03:40.134Z,52.83
2019-02-14T16:06:08.242Z,49.23
2019-02-14T16:08:36.016Z,56.73
2019-02-14T16:11:03.367Z,63.13
2019-02-14T16:13:33.527Z,60.50
2019-02-14T16:16:01.863Z,51.17
2019-02-14T16:18:29.876Z,59.70
2019-02-14T16:20:57.075Z,57.67
2019-02-14T16:23:24.469Z,59.23
2019-02-14T16:25:54.059Z,57.27
2019-02-14T16:28:22.944Z,51.67
2019-02-14T16:30:50.003Z,52.97
2019-02-14T16:33:17.755Z,54.70
2019-02-14T16:35:45.216Z,55.80
2019-02-14T16:38:13.931Z,52.50
2019-02-14T16:40:42.498Z,58.90
2019-02-14T16:43:09.994Z,58.50
2019-02-14T16:45:37.698Z,57.20
2019-02-14T16:48:05.045Z,53.77
2019-02-14T16:50:32.815Z,55.63
2019-02-14T16:52:59.866Z,62.43
2019-02-14T16:55:27.123Z,67.33
2019-02-14T16:57:56.455Z,58.93
2019-02-14T17:00:23.554Z,56.57
2019-02-14T17:02:50.653Z,52.13
2019-02-14T17:05:17.764Z,53.93
2019-02-14T17:07:44.861Z,54.57
2019-02-14T17:10:12.355Z,51.17
2019-02-14T17:12:39.971Z,60.80
2019-02-14T17:15:08.192Z,65.93
2019-02-14T17:17:35.328Z,56.47
2019-02-14T17:20:02.602Z,59.60
2019-02-14T17:22:30.091Z,54.60
2019-02-14T17:24:57.546Z,63.30
2019-02-14T17:27:25.298Z,56.53
2019-02-14T17:29:52.474Z,54.50
2019-02-14T17:32:19.554Z,56.30
2019-02-14T17:34:47.184Z,52.27
2019-02-14T17:37:16.236Z,52.07
2019-02-14T17:39:44.187Z,59.93
2019-02-14T17:42:11.305Z,55.47
2019-02-14T17:44:38.739Z,61.17
2019-02-14T17:47:06.210Z,56.07
2019-02-14T17:49:34.488Z,56.60
2019-02-14T17:52:01.910Z,63.17
2019-02-14T17:54:29.370Z,55.27
2019-02-14T17:56:57.117Z,59.80
2019-02-14T17:59:25.199Z,52.77
2019-02-14T18:01:52.852Z,57.13
2019-02-14T18:04:19.911Z,64.07
2019-02-14T18:06:46.998Z,54.90
2019-02-14T18:09:14.180Z,55.97
2019-02-14T18:11:41.548Z,67.07
2019-02-14T18:14:08.661Z,66.70
2019-02-14T18:16:35.731Z,59.20
2019-02-14T18:19:06.051Z,62.47
2019-02-14T18:21:33.189Z,68.23
2019-02-14T18:24:00.914Z,65.90
2019-02-14T18:26:30.085Z,60.70
2019-02-14T18:28:57.163Z,59.33
2019-02-14T18:31:24.267Z,60.87
2019-02-14T18:33:51.370Z,74.77
2019-02-14T18:36:20.935Z,71.60
2019-02-14T18:38:49.218Z,66.50
2019-02-14T18:41:17.315Z,57.50
2019-02-14T18:43:44.412Z,65.67
2019-02-14T18:46:12.477Z,62.27
2019-02-14T18:48:40.687Z,59.83
2019-02-14T18:51:08.189Z,63.47
2019-02-14T18:53:35.294Z,66.63
2019-02-14T18:56:03.043Z,63.87
2019-02-14T18:58:30.518Z,60.60
2019-02-14T19:00:59.402Z,55.83
2019-02-14T19:03:26.480Z,63.53
2019-02-14T19:05:54.649Z,57.60
2019-02-14T19:08:22.791Z,68.97
2019-02-14T19:10:51.575Z,65.08
2019-02-14T19:13:19.738Z,67.10
2019-02-14T19:15:47.335Z,61.90
2019-02-14T19:18:14.626Z,64.83
2019-02-14T19:20:41.699Z,58.52
2019-02-14T19:23:08.767Z,60.30
2019-02-14T19:25:36.314Z,76.55
2019-02-14T19:28:03.440Z,62.60
2019-02-14T19:30:30.485Z,61.68
2019-02-14T19:32:57.928Z,64.58
2019-02-14T19:35:24.986Z,66.47
2019-02-14T19:37:52.078Z,59.75
2019-02-14T19:40:20.002Z,58.30
2019-02-14T19:42:49.131Z,64.97
2019-02-14T19:45:16.225Z,67.37
2019-02-14T19:47:43.811Z,69.72
2019-02-14T19:50:10.953Z,62.80
2019-02-14T19:52:38.046Z,62.38
2019-02-14T19:55:07.150Z,58.55
2019-02-14T19:57:34.519Z,58.73
2019-02-14T20:00:01.918Z,63.10
2019-02-14T20:02:30.534Z,50.17
2019-02-14T20:04:58.794Z,71.30
2019-02-14T20:07:26.316Z,60.10
2019-02-14T20:09:53.384Z,58.23
2019-02-14T20:12:22.603Z,64.00
2019-02-14T20:14:49.865Z,64.87
2019-02-14T20:17:17.371Z,67.17
2019-02-14T20:19:46.297Z,56.30
2019-02-14T20:22:14.431Z,62.67
2019-02-14T20:24:41.838Z,61.20
2019-02-14T20:27:09.282Z,69.43
2019-02-14T20:29:37.607Z,65.50
2019-02-14T20:32:05.710Z,63.90
2019-02-14T20:34:32.844Z,67.15
2019-02-14T20:37:01.765Z,63.17
2019-02-14T20:39:29.304Z,55.90
2019-02-14T20:41:56.722Z,52.50
2019-02-14T20:44:24.780Z,63.50
2019-02-14T20:46:52.523Z,70.17
2019-02-14T20:49:19.822Z,65.63
2019-02-14T20:51:47.057Z,60.53
2019-02-14T20:54:14.593Z,63.77
2019-02-14T20:56:41.766Z,59.90
2019-02-14T20:59:09.504Z,62.17
2019-02-14T21:01:37.892Z,69.27
2019-02-14T21:04:06.304Z,69.43
2019-02-14T21:06:35.520Z,64.53
2019-02-14T21:09:04.179Z,60.83
2019-02-14T21:11:33.253Z,65.20
2019-02-14T21:14:00.531Z,61.93
2019-02-14T21:16:28.083Z,66.20
2019-02-14T21:18:55.165Z,70.80
2019-02-14T21:21:22.291Z,68.50
2019-02-14T21:23:50.312Z,71.40
2019-02-14T21:26:17.680Z,63.50
2019-02-14T21:28:44.743Z,62.40
2019-02-14T21:31:11.787Z,66.87
2019-02-14T21:33:39.552Z,65.13
2019-02-14T21:36:07.592Z,65.90
2019-02-14T21:38:36.310Z,59.30
2019-02-14T21:41:04.262Z,74.67
2019-02-14T21:43:32.031Z,71.20
2019-02-14T21:45:59.468Z,68.63
2019-02-14T21:48:26.620Z,67.77
2019-02-14T21:50:54.125Z,75.03
2019-02-14T21:53:23.597Z,68.30
2019-02-14T21:55:51.513Z,75.87
2019-02-14T21:58:19.263Z,57.60
2019-02-14T22:00:46.814Z,64.90
2019-02-14T22:03:16.719Z,63.27
2019-02-14T22:05:44.984Z,63.30
2019-02-14T22:08:12.663Z,70.33
2019-02-14T22:10:40.182Z,71.73
2019-02-14T22:13:07.417Z,66.87
2019-02-14T22:15:34.562Z,67.60
2019-02-14T22:18:02.678Z,64.72
2019-02-14T22:20:29.854Z,70.30
2019-02-14T22:22:56.944Z,65.23
2019-02-14T22:25:24.721Z,70.33
2019-02-14T22:27:53.335Z,72.90
2019-02-14T22:30:20.419Z,65.13
2019-02-14T22:32:48.119Z,72.13
2019-02-14T22:35:15.232Z,64.37
2019-02-14T22:37:42.930Z,68.37
2019-02-14T22:40:10.167Z,69.10
2019-02-14T22:42:46.233Z,72.43
2019-02-14T22:45:06.852Z,67.23
2019-02-14T22:47:34.703Z,69.40
2019-02-14T22:50:02.166Z,67.83
2019-02-14T22:52:31.074Z,70.70
2019-02-14T22:54:59.118Z,66.73
2019-02-14T22:57:26.889Z,67.87
2019-02-14T22:59:55.161Z,64.17
2019-02-14T23:02:22.359Z,74.70
2019-02-14T23:04:50.108Z,72.10
2019-02-14T23:07:18.963Z,69.50
2019-02-14T23:09:47.031Z,63.17
2019-02-14T23:12:14.515Z,65.30
2019-02-14T23:14:42.167Z,72.80
2019-02-14T23:17:09.832Z,66.13
2019-02-14T23:19:37.578Z,67.93
2019-02-14T23:22:05.386Z,64.73
2019-02-14T23:24:32.788Z,65.43
2019-02-14T23:27:00.563Z,72.20
2019-02-14T23:29:27.630Z,60.73
2019-02-14T23:31:54.987Z,62.93
2019-02-14T23:34:22.141Z,77.10
2019-02-14T23:36:49.410Z,70.93
2019-02-14T23:39:16.607Z,58.87
2019-02-14T23:41:44.993Z,59.67
2019-02-14T23:44:12.056Z,65.63
2019-02-14T23:46:39.454Z,68.90
2019-02-14T23:49:07.262Z,68.57
2019-02-14T23:51:34.338Z,71.37
2019-02-14T23:54:01.751Z,66.13
2019-02-14T23:56:29.177Z,72.07
2019-02-14T23:58:56.581Z,70.73
